createdAt,value
2018-09-09T00:02:22.793Z,7.03
2018-09-09T00:07:26.313Z,7.00
2018-09-09T00:12:29.838Z,6.13
2018-09-09T00:17:33.370Z,6.97
2018-09-09T00:22:36.914Z,7.57
2018-09-09T00:27:40.468Z,5.63
2018-09-09T00:32:43.941Z,7.90
2018-09-09T00:37:47.354Z,6.50
2018-09-09T00:42:50.926Z,5.33
2018-09-09T00:47:54.577Z,7.17
2018-09-09T00:53:03.373Z,8.40
2018-09-09T00:58:06.954Z,6.67
2018-09-09T01:03:10.427Z,5.00
2018-09-09T01:08:14.041Z,5.80
2018-09-09T01:13:17.519Z,8.27
2018-09-09T01:18:21.009Z,5.63
2018-09-09T01:23:24.481Z,5.77
2018-09-09T01:28:28.057Z,5.78
2018-09-09T01:33:31.885Z,6.00
2018-09-09T01:38:35.498Z,5.57
2018-09-09T01:43:39.022Z,6.90
2018-09-09T01:48:42.629Z,8.30
2018-09-09T01:53:46.166Z,6.43
2018-09-09T01:58:49.686Z,5.93
2018-09-09T02:03:53.243Z,5.13
2018-09-09T02:08:56.772Z,5.57
2018-09-09T02:14:00.394Z,5.53
2018-09-09T02:19:04.221Z,6.83
2018-09-09T02:24:07.807Z,5.53
2018-09-09T02:29:11.291Z,5.63
2018-09-09T02:34:14.831Z,8.93
2018-09-09T02:39:18.379Z,5.97
2018-09-09T02:44:21.932Z,7.30
2018-09-09T02:49:26.299Z,7.63
2018-09-09T02:54:29.815Z,7.30
2018-09-09T02:59:33.284Z,8.60
2018-09-09T03:04:37.378Z,7.63
2018-09-09T03:09:40.863Z,7.23
2018-09-09T03:14:44.353Z,7.40
2018-09-09T03:19:47.806Z,7.53
2018-09-09T03:24:51.372Z,7.30
2018-09-09T03:29:54.874Z,8.63
2018-09-09T03:34:58.388Z,9.10
2018-09-09T03:40:02.134Z,9.27
2018-09-09T03:45:06.246Z,7.17
2018-09-09T03:50:09.716Z,6.93
2018-09-09T03:55:13.305Z,7.13
2018-09-09T04:00:16.831Z,6.27
2018-09-09T04:05:20.442Z,6.07
2018-09-09T04:10:23.943Z,6.90
2018-09-09T04:15:27.558Z,7.10
2018-09-09T04:20:31.135Z,6.00
2018-09-09T04:25:34.613Z,6.87
2018-09-09T04:30:38.128Z,7.90
2018-09-09T04:35:41.639Z,5.03
2018-09-09T04:40:45.182Z,5.80
2018-09-09T04:45:48.677Z,5.30
2018-09-09T04:50:53.275Z,5.60
2018-09-09T04:55:56.796Z,6.47
2018-09-09T05:01:00.306Z,6.23
2018-09-09T05:06:03.821Z,6.47
2018-09-09T05:11:07.346Z,5.50
2018-09-09T05:16:10.863Z,5.30
2018-09-09T05:21:14.397Z,5.27
2018-09-09T05:26:17.889Z,5.83
2018-09-09T05:31:21.411Z,5.07
2018-09-09T05:36:24.922Z,6.83
2018-09-09T05:41:28.397Z,5.30
2018-09-09T05:46:31.875Z,5.30
2018-09-09T05:51:35.343Z,4.90
2018-09-09T05:56:38.846Z,4.70
2018-09-09T06:01:42.323Z,7.77
2018-09-09T06:06:45.859Z,4.27
2018-09-09T06:11:49.293Z,4.87
2018-09-09T06:16:52.745Z,4.07
2018-09-09T06:21:56.221Z,4.50
2018-09-09T06:26:59.754Z,4.00
2018-09-09T06:32:03.206Z,4.12
2018-09-09T06:37:06.698Z,4.30
2018-09-09T06:42:10.141Z,4.17
2018-09-09T06:47:13.606Z,4.55
2018-09-09T06:52:17.101Z,9.45
2018-09-09T06:57:20.560Z,3.60
2018-09-09T07:02:24.103Z,4.10
2018-09-09T07:07:27.550Z,3.87
2018-09-09T07:12:31.062Z,3.47
2018-09-09T07:17:34.571Z,5.62
2018-09-09T07:22:38.081Z,3.20
2018-09-09T07:27:41.493Z,5.42
2018-09-09T07:32:44.962Z,5.87
2018-09-09T07:37:48.454Z,8.60
2018-09-09T07:42:51.970Z,3.70
2018-09-09T07:48:01.969Z,2.95
2018-09-09T07:53:05.905Z,4.42
2018-09-09T07:58:09.385Z,4.97
2018-09-09T08:03:12.809Z,4.30
2018-09-09T08:08:16.264Z,3.77
2018-09-09T08:13:19.905Z,3.50
2018-09-09T08:18:23.494Z,2.85
2018-09-09T08:23:26.901Z,4.45
2018-09-09T08:28:30.412Z,2.90
2018-09-09T08:33:33.924Z,4.27
2018-09-09T08:38:37.426Z,3.17
2018-09-09T08:43:40.884Z,4.97
2018-09-09T08:48:44.417Z,4.35
2018-09-09T08:53:48.022Z,2.02
2018-09-09T08:58:51.457Z,2.70
2018-09-09T09:03:55.076Z,5.15
2018-09-09T09:08:58.693Z,4.45
2018-09-09T09:14:02.260Z,4.45
2018-09-09T09:19:05.754Z,2.55
2018-09-09T09:24:09.236Z,3.00
2018-09-09T09:29:12.713Z,3.75
2018-09-09T09:34:16.235Z,1.47
2018-09-09T09:39:20.277Z,4.40
2018-09-09T09:44:23.849Z,3.37
2018-09-09T09:49:27.378Z,4.37
2018-09-09T09:54:30.824Z,5.80
2018-09-09T09:59:34.327Z,4.67
2018-09-09T10:04:37.850Z,2.62
2018-09-09T10:09:41.402Z,4.35
2018-09-09T10:14:44.888Z,1.50
2018-09-09T10:19:48.361Z,2.58
2018-09-09T10:24:51.879Z,1.80
2018-09-09T10:29:56.255Z,4.97
2018-09-09T10:34:59.958Z,4.25
2018-09-09T10:40:03.813Z,2.52
2018-09-09T10:45:07.846Z,2.16
2018-09-09T10:50:11.397Z,2.52
2018-09-09T10:55:14.939Z,2.08
2018-09-09T11:00:18.450Z,2.00
2018-09-09T11:05:21.886Z,2.13
2018-09-09T11:10:25.358Z,1.62
2018-09-09T11:15:28.840Z,3.12
2018-09-09T11:20:32.345Z,2.33
2018-09-09T11:25:35.810Z,1.62
2018-09-09T11:30:39.230Z,3.92
2018-09-09T11:35:42.689Z,2.47
2018-09-09T11:40:46.260Z,2.52
2018-09-09T11:45:49.869Z,2.10
2018-09-09T11:50:53.522Z,2.80
2018-09-09T11:55:57.093Z,3.05
2018-09-09T12:01:00.598Z,1.15
2018-09-09T12:06:04.069Z,1.42
2018-09-09T12:11:07.550Z,1.07
2018-09-09T12:16:11.036Z,1.02
2018-09-09T12:21:14.521Z,1.75
2018-09-09T12:26:18.002Z,1.35
2018-09-09T12:31:21.304Z,1.92
2018-09-09T12:36:24.660Z,1.90
2018-09-09T12:41:27.983Z,2.30
2018-09-09T12:54:13.231Z,1.80
2018-09-09T12:59:16.522Z,1.23
2018-09-09T13:04:19.871Z,0.98
2018-09-09T13:09:23.248Z,0.88
2018-09-09T13:14:26.584Z,0.75
2018-09-09T13:19:29.931Z,2.12
2018-09-09T13:58:20.481Z,1.65
2018-09-09T14:03:23.840Z,2.92
2018-09-09T14:08:27.227Z,1.20
2018-09-09T14:13:30.547Z,1.40
2018-09-09T14:18:33.865Z,2.92
2018-09-09T14:23:37.195Z,1.32
2018-09-09T14:32:27.526Z,1.65
2018-09-09T14:37:30.870Z,2.12
2018-09-09T14:42:34.159Z,3.17
2018-09-09T14:47:37.507Z,1.03
2018-09-09T14:52:40.840Z,1.15
2018-09-09T14:57:50.782Z,4.97
2018-09-09T15:02:54.110Z,1.60
2018-09-09T15:07:57.446Z,1.10
2018-09-09T15:13:00.755Z,2.90
2018-09-09T15:18:04.089Z,2.15
2018-09-09T15:23:07.441Z,2.67
2018-09-09T15:28:10.817Z,1.47
2018-09-09T15:33:14.140Z,1.35
2018-09-09T15:38:17.455Z,0.90
2018-09-09T15:43:20.787Z,0.80
2018-09-09T15:48:24.127Z,2.08
2018-09-09T15:53:27.419Z,0.70
2018-09-09T15:58:30.715Z,1.92
2018-09-09T16:03:34.023Z,1.15
2018-09-09T16:08:37.887Z,4.47
2018-09-09T16:13:41.198Z,1.92
2018-09-09T16:18:44.606Z,2.15
2018-09-09T16:23:47.923Z,1.15
2018-09-09T16:28:51.318Z,0.95
2018-09-09T16:33:54.629Z,1.35
2018-09-09T16:38:57.973Z,1.10
2018-09-09T16:44:01.520Z,3.02
2018-09-09T16:49:04.838Z,1.52
2018-09-09T16:54:08.158Z,1.07
2018-09-09T16:59:11.535Z,1.32
2018-09-09T17:04:14.926Z,1.40
2018-09-09T17:09:18.281Z,1.22
2018-09-09T17:14:21.680Z,1.62
2018-09-09T17:19:25.111Z,1.00
2018-09-09T17:24:28.454Z,4.55
2018-09-09T17:29:31.859Z,1.27
2018-09-09T17:46:21.091Z,0.93
2018-09-09T17:51:24.438Z,0.75
2018-09-09T17:56:27.755Z,1.10
2018-09-09T18:01:31.139Z,1.72
2018-09-09T18:06:34.460Z,2.05
2018-09-09T18:11:37.791Z,3.45
2018-09-09T18:16:41.290Z,2.77
2018-09-09T18:21:44.655Z,1.55
2018-09-09T18:26:48.017Z,1.37
2018-09-09T18:31:51.347Z,4.47
2018-09-09T18:36:54.715Z,14.13
2018-09-09T18:41:58.028Z,2.17
2018-09-09T18:47:01.415Z,1.57
2018-09-09T18:52:04.720Z,1.65
2018-09-09T18:57:08.050Z,1.12
2018-09-09T19:02:11.358Z,2.80
2018-09-09T19:07:14.681Z,1.87
2018-09-09T19:12:18.025Z,1.90
2018-09-09T19:17:21.369Z,1.22
2018-09-09T19:22:24.705Z,3.08
2018-09-09T19:27:28.191Z,1.80
2018-09-09T19:32:31.614Z,4.17
2018-09-09T19:37:34.947Z,2.70
2018-09-09T19:42:38.635Z,2.85
2018-09-09T19:47:42.003Z,1.82
2018-09-09T19:52:45.342Z,2.55
2018-09-09T19:57:48.939Z,4.78
2018-09-09T20:02:52.381Z,2.52
2018-09-09T20:07:55.797Z,4.47
2018-09-09T20:12:59.194Z,3.67
2018-09-09T20:18:02.602Z,2.95
2018-09-09T20:23:06.047Z,2.30
2018-09-09T20:28:09.403Z,3.05
2018-09-09T20:33:12.764Z,2.50
2018-09-09T20:38:16.186Z,6.83
2018-09-09T20:43:19.545Z,2.72
2018-09-09T20:48:22.882Z,3.75
2018-09-09T20:53:26.219Z,1.90
2018-09-09T20:58:29.607Z,1.92
2018-09-09T21:03:33.255Z,2.10
2018-09-09T21:08:36.619Z,2.37
2018-09-09T21:13:39.955Z,2.37
2018-09-09T21:18:43.315Z,3.00
2018-09-09T21:23:46.686Z,4.30
2018-09-09T21:28:50.098Z,3.02
2018-09-09T21:33:53.470Z,3.55
2018-09-09T21:38:56.884Z,2.72
2018-09-09T21:44:00.280Z,3.27
2018-09-09T21:49:03.699Z,2.33
2018-09-09T21:54:07.153Z,5.10
2018-09-09T21:59:10.515Z,2.67
2018-09-09T22:04:13.890Z,2.40
2018-09-09T22:09:23.904Z,2.55
2018-09-09T22:14:27.406Z,3.12
2018-09-09T22:19:30.803Z,3.75
2018-09-09T22:24:34.148Z,2.72
2018-09-09T22:29:37.458Z,2.62
2018-09-09T22:34:40.851Z,1.70
2018-09-09T22:39:44.330Z,1.98
2018-09-09T22:44:47.694Z,2.20
2018-09-09T22:49:51.052Z,2.70
2018-09-09T22:54:54.432Z,2.62
2018-09-09T22:59:57.895Z,3.05
2018-09-09T23:05:01.212Z,2.58
2018-09-09T23:10:04.614Z,7.55
2018-09-09T23:15:07.951Z,3.92
2018-09-09T23:20:11.252Z,1.93
2018-09-09T23:25:14.547Z,2.87
2018-09-09T23:30:17.844Z,5.45
2018-09-09T23:35:21.130Z,2.90
2018-09-09T23:40:24.452Z,2.53
2018-09-09T23:45:27.809Z,2.50
2018-09-09T23:50:31.902Z,4.72
2018-09-09T23:55:35.262Z,2.42
